Time;durP1;ratioP1;P1;durP2;ratioP2;P2;SDS_P1;SDS_P2;PMS_P1;PMS_P2;Temp;Humidity;BMP_temperature;BMP_pressure;BME280_temperature;BME280_humidity;BME280_pressure;Samples;Min_cycle;Max_cycle;Signal;HPM_P1;HPM_P2
2022/08/08 00:00:50;;;;;;;5.45;3.63;;;10.90;99.90;;;11.50;100.00;99951.00;5101616;27;119712;-76
2022/08/08 00:03:25;;;;;;;6.63;3.70;;;10.90;99.90;;;11.49;100.00;99950.19;5102555;27;119499;-79
2022/08/08 00:06:02;;;;;;;6.50;4.10;;;10.90;99.90;;;11.49;100.00;99942.03;5085164;27;129858;-77
2022/08/08 00:08:42;;;;;;;7.07;4.13;;;10.90;99.90;;;11.47;100.00;99941.53;5104732;27;129893;-76
2022/08/08 00:11:21;;;;;;;9.90;4.57;;;10.90;99.90;;;11.44;100.00;99936.72;5105379;27;119715;-80
2022/08/08 00:14:00;;;;;;;7.68;4.47;;;10.90;99.90;;;11.45;100.00;99954.66;5105515;27;120519;-78
2022/08/08 00:16:43;;;;;;;7.25;4.10;;;10.80;99.90;;;11.45;100.00;99949.22;5104344;27;130129;-79
2022/08/08 00:19:20;;;;;;;8.73;4.25;;;10.80;99.90;;;11.42;100.00;99949.00;5104452;27;129495;-79
2022/08/08 00:21:56;;;;;;;8.73;5.70;;;10.80;99.90;;;11.29;100.00;99956.88;5105119;27;119514;-77
2022/08/08 00:24:34;;;;;;;6.40;3.88;;;10.80;99.90;;;11.20;100.00;99952.47;5105602;27;119432;-79
2022/08/08 00:27:08;;;;;;;6.25;4.00;;;10.70;99.90;;;11.00;100.00;99953.69;5089281;27;129119;-78
2022/08/08 00:29:44;;;;;;;6.63;3.75;;;10.60;99.90;;;10.84;100.00;99948.56;5085930;27;129675;-77
2022/08/08 00:32:21;;;;;;;6.40;4.05;;;10.50;99.90;;;10.77;100.00;99942.75;5103446;27;121886;-78
2022/08/08 00:35:12;;;;;;;;;;;10.50;99.90;;;10.61;100.00;99953.09;5086921;27;121818;-79
2022/08/08 00:37:53;;;;;;;7.60;4.45;;;10.40;99.90;;;10.62;100.00;99954.69;5105546;27;130176;-76
2022/08/08 00:40:59;;;;;;;8.65;4.30;;;10.30;99.90;;;10.68;100.00;99948.06;5071794;27;128149;-77
2022/08/08 00:44:27;;;;;;;8.13;4.60;;;10.30;99.90;;;10.67;100.00;99957.31;5104157;27;119562;-76
2022/08/08 00:47:57;;;;;;;8.20;5.10;;;10.30;99.90;;;10.71;100.00;99952.91;5078423;27;119633;-77
2022/08/08 00:51:28;;;;;;;8.25;4.53;;;10.40;99.90;;;10.76;100.00;99950.06;5088926;27;130085;-76
2022/08/08 00:54:37;;;;;;;9.48;4.50;;;10.30;99.90;;;10.82;100.00;99952.72;5089083;27;129603;-77
2022/08/08 00:58:02;;;;;;;7.30;3.90;;;10.30;99.90;;;10.87;100.00;99961.53;5037519;27;118410;-75
2022/08/08 01:00:46;;;;;;;10.20;5.00;;;10.30;99.90;;;10.92;100.00;99966.06;5085815;27;119241;-78
2022/08/08 01:04:19;;;;;;;8.45;4.45;;;10.30;99.90;;;10.93;100.00;99964.97;5087291;27;129690;-79
2022/08/08 01:07:38;;;;;;;7.63;4.50;;;10.30;99.90;;;10.90;100.00;99971.00;5085394;27;129513;-77
2022/08/08 01:10:51;;;;;;;9.00;4.63;;;10.40;99.90;;;10.83;100.00;99965.16;5071763;27;118515;-77
2022/08/08 01:14:13;;;;;;;8.45;4.57;;;10.40;99.90;;;10.86;100.00;99959.13;5071984;27;119056;-78
2022/08/08 01:17:42;;;;;;;7.72;4.75;;;10.30;99.90;;;10.88;100.00;99956.94;5070038;27;129082;-79
2022/08/08 01:20:44;;;;;;;9.35;4.18;;;10.30;99.90;;;10.90;100.00;99954.72;5055130;27;129156;-78
2022/08/08 01:24:21;;;;;;;8.45;4.15;;;10.20;99.90;;;10.84;100.00;99950.50;5088794;27;118862;-76
2022/08/08 01:28:00;;;;;;;9.15;4.32;;;10.30;99.90;;;10.80;100.00;99950.28;5085669;27;119518;-79
2022/08/08 01:31:37;;;;;;;8.45;4.07;;;10.30;99.90;;;10.83;100.00;99954.31;5084932;27;129848;-78
2022/08/08 01:34:57;;;;;;;7.63;4.40;;;10.30;99.90;;;10.86;100.00;99948.25;5005704;28;128856;-80
2022/08/08 01:38:18;;;;;;;9.95;5.25;;;10.30;99.90;;;10.84;100.00;99956.72;5082212;27;121689;-77
2022/08/08 01:41:02;;;;;;;7.55;4.13;;;10.30;99.90;;;10.82;100.00;99958.16;5088288;27;121323;-78
2022/08/08 01:43:52;;;;;;;7.13;3.78;;;10.30;99.90;;;10.80;100.00;99955.72;5087562;27;132543;-77
2022/08/08 01:46:47;;;;;;;6.38;4.18;;;10.30;99.90;;;10.82;100.00;99952.72;5088610;27;129967;-79
2022/08/08 01:49:25;;;;;;;8.88;4.53;;;10.30;99.90;;;10.88;100.00;99957.72;5072670;27;118404;-79
2022/08/08 01:52:14;;;;;;;12.43;4.30;;;10.30;99.90;;;10.84;100.00;99951.28;5089631;27;119701;-74
2022/08/08 01:55:05;;;;;;;7.32;4.68;;;10.30;99.90;;;10.83;100.00;99955.13;5102953;27;130341;-77
2022/08/08 01:57:51;;;;;;;8.63;4.38;;;10.30;99.90;;;10.84;100.00;99950.50;5070955;27;129181;-76
2022/08/08 02:00:27;;;;;;;10.40;4.40;;;10.20;99.90;;;10.84;100.00;99956.72;5088396;27;119148;-77
2022/08/08 02:03:26;;;;;;;7.80;4.25;;;10.20;99.90;;;10.76;100.00;99965.56;5070831;27;118808;-75
2022/08/08 02:06:08;;;;;;;9.30;3.75;;;10.20;99.90;;;10.67;100.00;99962.75;5083318;27;129668;-76
2022/08/08 02:09:03;;;;;;;8.88;4.63;;;10.20;99.90;;;10.66;100.00;99972.00;5087608;27;129664;-77
2022/08/08 02:11:42;;;;;;;8.27;4.28;;;10.20;99.90;;;10.70;100.00;99966.78;5084572;27;120000;-77
2022/08/08 02:14:19;;;;;;;7.38;3.95;;;10.20;99.90;;;10.75;100.00;99972.09;5103279;27;119198;-78
2022/08/08 02:16:57;;;;;;;7.63;3.88;;;10.20;99.90;;;10.82;100.00;99969.78;5097746;27;130123;-78
2022/08/08 02:19:43;;;;;;;6.80;4.00;;;10.20;99.90;;;10.83;100.00;99970.59;5088076;27;129087;-80
2022/08/08 02:22:30;;;;;;;6.18;3.67;;;10.30;99.90;;;10.78;100.00;99969.59;5084768;27;119684;-78
2022/08/08 02:25:15;;;;;;;8.60;3.65;;;10.30;99.90;;;10.68;100.00;99975.22;5088210;27;119140;-77
2022/08/08 02:27:56;;;;;;;6.85;3.50;;;10.40;99.90;;;10.67;100.00;99973.59;5083604;27;129737;-79
2022/08/08 02:30:38;;;;;;;8.38;4.45;;;10.40;99.90;;;10.67;100.00;99983.66;5087238;27;129358;-75
2022/08/08 02:33:32;;;;;;;8.82;4.18;;;10.40;99.90;;;10.64;100.00;99985.06;5101654;27;122051;-78
2022/08/08 02:36:25;;;;;;;7.25;4.05;;;10.50;99.90;;;10.65;100.00;99989.38;5087637;27;122051;-78
2022/08/08 02:39:06;;;;;;;7.15;3.92;;;10.50;99.90;;;10.68;100.00;99990.72;5083603;27;129822;-78
2022/08/08 02:42:29;;;;;;;7.00;3.72;;;10.50;99.90;;;10.73;100.00;99994.13;5069956;27;128790;-80
2022/08/08 02:45:28;;;;;;;6.35;3.88;;;10.60;99.90;;;10.78;100.00;99996.75;5084141;27;119625;-77
2022/08/08 02:48:49;;;;;;;9.80;3.83;;;10.60;99.90;;;10.85;100.00;99995.56;5087294;27;119187;-80
2022/08/08 02:52:04;;;;;;;6.13;3.75;;;10.50;99.90;;;10.92;100.00;99985.06;5081337;27;131354;-79
2022/08/08 02:54:59;;;;;;;6.95;3.70;;;10.40;99.90;;;10.97;100.00;99993.13;5070376;27;129047;-80
2022/08/08 02:58:28;;;;;;;8.88;3.72;;;10.30;99.90;;;10.97;100.00;99998.56;5087365;27;119762;-78
2022/08/08 03:01:58;;;;;;;6.57;3.65;;;10.40;99.90;;;10.95;100.00;99998.88;5083888;27;119343;-76
2022/08/08 03:05:02;;;;;;;;;;;10.40;99.90;;;10.95;100.00;100004.31;5083064;27;130229;-79
2022/08/08 03:08:34;;;;;;;6.68;3.53;;;10.40;99.90;;;10.98;100.00;100000.16;5083886;27;129535;-78
2022/08/08 03:12:10;;;;;;;8.25;3.90;;;10.40;99.90;;;11.04;100.00;100001.66;5079068;27;119565;-78
2022/08/08 03:15:11;;;;;;;5.93;3.15;;;10.50;99.90;;;11.12;100.00;100000.16;5084053;27;119877;-75
2022/08/08 03:17:50;;;;;;;6.75;2.88;;;10.50;99.90;;;11.27;100.00;100008.00;5070956;27;129044;-79
2022/08/08 03:20:18;;;;;;;5.05;2.80;;;10.70;99.90;;;11.41;100.00;100013.41;5102082;27;129362;-79
2022/08/08 03:22:51;;;;;;;7.28;3.13;;;10.80;99.90;;;11.45;100.00;100009.00;5102171;27;119951;-80
2022/08/08 03:25:26;;;;;;;4.47;2.60;;;10.80;99.90;;;11.55;100.00;100015.31;5102530;27;119500;-79
2022/08/08 03:28:02;;;;;;;5.10;3.42;;;10.90;99.90;;;11.66;100.00;100013.97;5086825;27;129033;-77
2022/08/08 03:30:35;;;;;;;6.28;3.25;;;11.00;99.90;;;11.68;100.00;100014.47;5069378;27;129360;-77
2022/08/08 03:33:18;;;;;;;6.03;2.92;;;11.00;99.90;;;11.74;100.00;100015.16;5082069;27;122310;-78
2022/08/08 03:35:52;;;;;;;6.65;3.10;;;11.10;99.90;;;11.81;100.00;100019.06;5086491;27;122328;-78
2022/08/08 03:38:24;;;;;;;6.82;2.95;;;11.10;99.90;;;11.82;100.00;100026.09;5070046;27;129302;-79
2022/08/08 03:40:55;;;;;;;5.65;3.47;;;11.20;99.90;;;11.69;100.00;100018.81;5090094;27;129181;-79
2022/08/08 03:43:28;;;;;;;6.65;3.72;;;11.20;99.90;;;11.76;100.00;100027.31;5087652;27;119520;-76
2022/08/08 03:46:06;;;;;;;8.27;4.22;;;11.20;99.90;;;11.95;100.00;100020.97;5090105;27;120119;-75
2022/08/08 03:48:35;;;;;;;6.53;3.85;;;11.40;99.90;;;12.15;100.00;100015.03;5086658;27;130339;-73
2022/08/08 03:51:07;;;;;;;6.03;3.97;;;11.60;99.90;;;12.38;100.00;100018.53;5105420;27;130040;-74
2022/08/08 03:53:38;;;;;;;8.40;3.70;;;11.70;99.90;;;12.52;100.00;100018.47;5086809;27;119485;-74
2022/08/08 03:56:07;;;;;;;6.75;4.22;;;11.80;99.90;;;12.68;100.00;100024.31;5090062;27;119812;-75
2022/08/08 03:58:36;;;;;;;6.90;3.97;;;12.00;99.90;;;12.89;100.00;100026.53;5088103;27;131680;-75
2022/08/08 04:01:12;;;;;;;7.18;4.03;;;12.10;99.90;;;13.04;100.00;100028.81;5089697;27;129594;-75
2022/08/08 04:03:45;;;;;;;6.65;3.88;;;12.20;99.90;;;13.19;100.00;100034.97;5086993;27;119565;-74
2022/08/08 04:06:14;;;;;;;5.60;3.40;;;12.30;99.90;;;13.27;100.00;100029.53;5089856;27;118794;-74
2022/08/08 04:08:45;;;;;;;7.57;4.00;;;12.40;99.90;;;13.35;100.00;100027.16;5086150;27;130590;-76
2022/08/08 04:11:20;;;;;;;7.35;3.40;;;12.50;99.90;;;13.48;100.00;100020.78;5059129;27;128238;-71
2022/08/08 04:13:49;;;;;;;7.18;3.65;;;12.60;99.90;;;13.59;100.00;100018.56;5056455;27;118157;-76
2022/08/08 04:16:18;;;;;;;7.18;3.58;;;12.70;99.90;;;13.73;100.00;100023.84;5044512;27;119914;-75
2022/08/08 04:18:48;;;;;;;10.63;4.82;;;12.80;99.90;;;13.89;100.00;100025.00;5043666;27;129783;-73
2022/08/08 04:21:18;;;;;;;6.50;3.97;;;13.00;99.90;;;14.05;100.00;100021.78;5048350;27;129040;-77
2022/08/08 04:23:49;;;;;;;5.68;3.88;;;13.10;99.90;;;14.25;100.00;100021.13;5062383;27;122180;-76
2022/08/08 04:26:17;;;;;;;6.85;3.55;;;13.30;99.90;;;14.43;100.00;100015.63;5046794;27;123133;-75
2022/08/08 04:28:46;;;;;;;6.80;3.63;;;13.40;99.90;;;14.44;100.00;100011.78;5029262;27;129606;-75
2022/08/08 04:31:15;;;;;;;5.75;3.35;;;13.50;99.90;;;14.49;100.00;100019.78;5047783;27;128280;-76
2022/08/08 04:33:44;;;;;;;5.15;3.00;;;13.60;99.90;;;14.55;100.00;100018.50;5063172;27;119473;-79
2022/08/08 04:36:13;;;;;;;6.13;3.42;;;13.60;99.90;;;14.62;100.00;100016.09;5031255;27;119259;-76
2022/08/08 04:38:41;;;;;;;6.45;2.45;;;13.60;99.90;;;14.65;100.00;100023.66;5063145;27;129866;-77
2022/08/08 04:41:11;;;;;;;6.22;2.72;;;13.70;99.90;;;14.77;98.29;100019.41;5048255;27;128968;-76
2022/08/08 04:43:41;;;;;;;7.35;2.90;;;13.90;99.90;;;14.88;96.61;100020.66;5031285;27;118523;-77
2022/08/08 04:46:09;;;;;;;5.05;2.72;;;14.00;99.90;;;14.98;95.30;100025.78;5048100;27;119619;-75
2022/08/08 04:48:39;;;;;;;4.32;2.40;;;14.20;99.90;;;15.10;92.03;100025.88;5043186;27;131169;-77
2022/08/08 04:51:08;;;;;;;5.32;2.20;;;14.20;99.90;;;15.25;90.69;100029.19;5062733;27;129854;-74
2022/08/08 04:53:36;;;;;;;5.28;2.25;;;14.30;99.90;;;15.36;89.08;100024.94;5063048;27;120300;-76
2022/08/08 04:56:06;;;;;;;5.57;1.90;;;14.50;99.90;;;15.42;88.83;100022.81;5052292;27;119193;-76
2022/08/08 04:58:38;;;;;;;4.47;2.40;;;14.50;99.90;;;15.45;87.56;100031.16;5061431;27;130911;-71
2022/08/08 05:01:09;;;;;;;5.13;2.55;;;14.60;99.90;;;15.71;88.54;100029.41;5064632;27;103456;-72
2022/08/08 05:03:39;;;;;;;4.15;1.92;;;14.80;99.90;;;15.66;85.18;100027.66;5061709;27;119422;-71
2022/08/08 05:06:08;;;;;;;4.10;2.03;;;14.80;99.10;;;15.69;86.18;100026.16;5061941;27;119497;-73
2022/08/08 05:08:37;;;;;;;3.47;2.00;;;14.90;99.90;;;15.84;85.42;100027.56;5061163;27;129399;-71
2022/08/08 05:11:06;;;;;;;4.22;1.80;;;15.00;97.80;;;16.08;85.03;100027.69;5061102;27;129557;-72
2022/08/08 05:13:37;;;;;;;4.82;1.67;;;15.20;93.20;;;16.20;84.19;100028.84;5063477;27;121644;-71
2022/08/08 05:16:06;;;;;;;3.60;1.80;;;15.30;91.90;;;16.43;82.16;100030.06;5061669;27;122409;-72
2022/08/08 05:18:35;;;;;;;6.00;1.90;;;15.50;88.60;;;16.69;81.31;100035.28;5064095;27;129702;-72
2022/08/08 05:21:07;;;;;;;3.00;1.60;;;15.70;77.00;;;16.88;79.39;100026.53;5061243;27;130000;-72
2022/08/08 05:23:36;;;;;;;4.18;1.80;;;15.80;53.60;;;17.11;76.99;100023.38;5062581;27;119832;-72
2022/08/08 05:26:05;;;;;;;3.38;1.95;;;15.80;42.70;;;17.32;75.65;100022.44;5064519;27;118859;-71
2022/08/08 05:28:34;;;;;;;4.43;2.05;;;15.90;33.60;;;17.50;74.35;100022.97;5060927;27;129780;-70
2022/08/08 05:31:04;;;;;;;4.45;2.00;;;16.00;33.70;;;17.61;72.77;100024.91;5062323;27;129913;-73
2022/08/08 05:33:32;;;;;;;5.07;2.10;;;16.00;19.80;;;17.68;72.26;100023.53;5062421;27;119410;-75
2022/08/08 05:36:03;;;;;;;6.05;1.80;;;16.30;19.80;;;17.60;71.43;100017.81;5047246;27;119242;-75
2022/08/08 05:38:34;;;;;;;4.10;1.85;;;16.30;8.00;;;17.76;72.33;100022.59;5045844;27;129124;-74
2022/08/08 05:41:08;;;;;;;11.27;2.65;;;16.40;10.60;;;17.94;72.28;100025.91;5060833;27;129988;-73
2022/08/08 05:43:40;;;;;;;5.43;2.25;;;16.70;10.10;;;18.01;70.36;100019.78;5081425;27;119357;-73
2022/08/08 05:46:12;;;;;;;5.65;1.75;;;16.80;1.00;;;18.03;69.46;100028.47;5060876;27;119408;-73
2022/08/08 05:48:43;;;;;;;7.00;2.22;;;16.90;1.00;;;18.12;68.66;100031.88;5063678;27;129596;-75
2022/08/08 05:51:16;;;;;;;4.22;1.70;;;17.00;1.00;;;18.20;66.56;100032.88;5060557;27;129667;-75
2022/08/08 05:53:53;;;;;;;3.72;1.77;;;17.10;1.00;;;18.32;64.97;100036.38;5065369;27;119861;-74
2022/08/08 05:56:23;;;;;;;4.20;1.65;;;17.30;1.00;;;18.42;64.38;100037.03;5063987;27;119633;-74
2022/08/08 05:59:02;;;;;;;4.63;1.70;;;17.40;1.00;;;18.38;64.06;100038.88;5060983;27;130967;-74
2022/08/08 06:01:42;;;;;;;5.25;1.70;;;17.30;1.00;;;18.58;63.79;100026.84;5045841;27;129187;-75
2022/08/08 06:04:12;;;;;;;4.40;1.70;;;17.50;1.00;;;18.73;64.09;100027.22;5059404;27;121990;-75
2022/08/08 06:06:42;;;;;;;3.95;1.85;;;17.60;1.00;;;19.04;62.45;100041.00;5063897;27;121585;-74
2022/08/08 06:09:10;;;;;;;6.22;1.80;;;17.90;1.00;;;19.18;61.90;100037.00;5059956;27;130560;-75
2022/08/08 06:11:40;;;;;;;10.45;2.00;;;18.00;1.00;;;19.38;60.08;100035.94;5063474;27;129276;-74
2022/08/08 06:14:09;;;;;;;4.95;1.50;;;17.90;1.00;;;19.74;59.74;100035.91;5061959;27;120213;-74
2022/08/08 06:16:40;;;;;;;5.45;1.60;;;18.30;1.00;;;19.72;58.11;100039.00;5063575;27;118884;-73
2022/08/08 06:19:19;;;;;;;6.88;1.60;;;18.40;1.00;;;19.85;59.48;100036.16;5060085;27;130319;-72
2022/08/08 06:21:50;;;;;;;4.60;1.45;;;18.50;1.00;;;20.10;56.14;100043.00;5063536;27;129127;-73
2022/08/08 06:24:21;;;;;;;4.63;1.83;;;18.40;1.00;;;20.26;55.94;100042.13;5060271;27;119516;-72
2022/08/08 06:26:57;;;;;;;4.65;1.50;;;18.50;1.00;;;20.39;56.26;100032.50;5060343;27;119399;-74
2022/08/08 06:29:34;;;;;;;6.22;1.70;;;18.80;1.00;;;20.56;55.72;100033.22;5045100;27;129356;-73
2022/08/08 06:32:08;;;;;;;5.40;1.58;;;19.00;1.00;;;20.78;55.13;100037.97;5063059;27;129462;-74
2022/08/08 06:34:39;;;;;;;3.33;1.60;;;19.10;1.00;;;20.76;54.78;100037.56;5060387;27;119960;-74
2022/08/08 06:37:14;;;;;;;3.05;1.40;;;19.20;1.00;;;20.75;53.85;100037.91;5060147;27;119572;-74
2022/08/08 06:39:49;;;;;;;5.90;1.83;;;19.10;1.00;;;20.94;53.80;100034.28;5046397;27;129732;-73
2022/08/08 06:42:18;;;;;;;3.30;1.60;;;19.10;1.00;;;20.78;54.79;100037.19;5059863;27;130647;-75
2022/08/08 06:44:52;;;;;;;2.67;1.30;;;19.30;1.00;;;20.73;52.54;100040.25;5063254;27;120484;-73
2022/08/08 06:47:23;;;;;;;3.33;1.15;;;19.40;1.00;;;20.78;51.89;100040.72;5061743;27;120145;-74
2022/08/08 06:49:52;;;;;;;7.15;1.38;;;19.30;1.00;;;21.05;52.30;100040.81;5062962;27;129842;-74
2022/08/08 06:52:21;;;;;;;3.25;1.20;;;19.60;1.00;;;20.91;51.10;100043.31;5060661;27;129902;-73
2022/08/08 06:54:51;;;;;;;6.47;1.67;;;19.60;1.00;;;20.54;53.27;100050.13;5044871;27;122206;-73
2022/08/08 06:57:20;;;;;;;4.68;1.90;;;19.50;1.00;;;20.23;53.48;100040.88;5062199;27;121602;-74
2022/08/08 06:59:49;;;;;;;4.60;1.20;;;19.30;1.00;;;20.58;52.75;100050.19;5059476;27;130474;-73
2022/08/08 07:02:26;;;;;;;5.25;1.60;;;19.50;1.00;;;20.77;51.42;100047.44;5062656;27;129616;-74
2022/08/08 07:05:05;;;;;;;4.95;1.60;;;19.80;1.00;;;20.91;51.58;100046.06;5077038;27;119741;-74
2022/08/08 07:08:00;;;;;;;3.95;1.30;;;19.80;1.00;;;21.12;51.60;100049.19;5045968;27;118774;-73
2022/08/08 07:10:37;;;;;;;4.05;1.30;;;19.90;1.00;;;21.35;50.02;100048.34;5064607;27;129859;-73
2022/08/08 07:13:08;;;;;;;4.50;1.40;;;19.60;1.00;;;21.81;50.39;100048.22;5029279;27;128982;-73
2022/08/08 07:15:45;;;;;;;4.63;1.40;;;20.10;1.00;;;22.33;48.48;100044.94;5047998;27;121068;-74
2022/08/08 07:18:25;;;;;;;4.40;1.30;;;20.50;1.00;;;22.71;46.68;100037.44;5077306;27;119775;-73
2022/08/08 07:20:59;;;;;;;15.80;2.10;;;20.60;1.00;;;23.01;45.19;100042.03;5061257;27;129890;-73
2022/08/08 07:23:33;;;;;;;6.20;1.52;;;20.40;1.00;;;23.18;45.12;100041.41;5062616;27;130704;-73
2022/08/08 07:26:04;;;;;;;3.10;0.90;;;21.00;1.00;;;23.35;42.11;100039.16;5047271;27;119456;-73
2022/08/08 07:28:36;;;;;;;3.08;1.13;;;20.50;1.00;;;23.42;42.63;100034.47;5052049;27;119472;-72
2022/08/08 07:31:08;;;;;;;1.58;0.70;;;20.80;1.00;;;23.71;41.51;100031.84;5065702;27;129112;-72
2022/08/08 07:33:40;;;;;;;2.20;0.90;;;21.10;1.00;;;23.34;41.82;100035.56;5062571;27;129507;-74
2022/08/08 07:36:10;;;;;;;4.07;1.20;;;20.60;1.00;;;22.59;43.00;100042.06;5081012;27;119779;-71
2022/08/08 07:38:41;;;;;;;9.15;1.67;;;20.00;1.00;;;22.04;43.72;100044.59;5049201;27;118747;-73
2022/08/08 07:41:11;;;;;;;3.17;0.90;;;19.70;1.00;;;21.64;43.30;100037.75;5062250;27;130136;-72
2022/08/08 07:43:41;;;;;;;3.75;1.00;;;19.40;1.00;;;21.53;44.58;100038.41;5048333;27;128726;-74
2022/08/08 07:46:12;;;;;;;4.40;1.35;;;19.40;1.00;;;21.35;45.71;100031.78;5061248;27;122977;-75
2022/08/08 07:48:42;;;;;;;2.63;1.08;;;19.40;1.00;;;21.16;45.14;100036.25;5048907;27;121136;-73
2022/08/08 07:51:12;;;;;;;1.48;0.90;;;19.30;1.00;;;20.99;45.82;100040.31;5062083;27;130505;-72
2022/08/08 07:53:57;;;;;;;5.90;1.20;;;19.20;1.00;;;20.86;47.34;100033.38;5065506;27;129089;-74
2022/08/08 07:56:30;;;;;;;6.60;1.30;;;19.20;1.00;;;21.59;46.92;100035.31;5060444;27;120159;-74
2022/08/08 07:58:59;;;;;;;2.70;0.98;;;19.80;1.00;;;21.67;43.74;100037.78;5059635;27;119571;-74
2022/08/08 08:01:32;;;;;;;1.95;0.98;;;20.10;1.00;;;21.82;44.28;100038.78;5061943;27;129614;-72
2022/08/08 08:04:09;;;;;;;2.25;0.90;;;20.20;1.00;;;21.88;45.04;100025.44;5059007;27;129926;-73
2022/08/08 08:06:38;;;;;;;2.53;1.02;;;20.40;1.00;;;22.08;44.51;100034.38;5060332;27;119687;-74
2022/08/08 08:09:17;;;;;;;2.10;0.93;;;20.70;1.00;;;22.11;44.58;100028.09;5059178;27;119298;-75
2022/08/08 08:11:51;;;;;;;4.20;1.35;;;20.70;1.00;;;22.44;45.52;100032.81;5060588;27;130738;-74
2022/08/08 08:14:37;;;;;;;4.85;1.40;;;20.90;1.00;;;23.04;44.47;100035.72;5058434;27;130252;-75
2022/08/08 08:17:09;;;;;;;5.88;1.63;;;21.40;1.00;;;23.31;43.91;100033.56;5044894;27;119132;-74
2022/08/08 08:19:41;;;;;;;6.60;1.40;;;21.70;1.00;;;23.14;42.72;100032.28;5058886;27;119420;-78
2022/08/08 08:22:10;;;;;;;4.43;1.25;;;21.50;1.00;;;23.33;43.75;100029.25;5044714;27;128790;-76
2022/08/08 08:24:47;;;;;;;3.22;1.13;;;21.80;1.00;;;23.71;42.00;100026.31;5059525;27;129791;-74
2022/08/08 08:27:20;;;;;;;3.05;1.15;;;22.00;1.00;;;23.89;42.86;100031.97;5065570;27;119204;-72
2022/08/08 08:29:51;;;;;;;4.00;1.05;;;22.00;1.00;;;24.07;41.24;100018.16;5062579;27;119035;-74
2022/08/08 08:32:21;;;;;;;5.57;1.27;;;22.10;1.00;;;24.18;41.14;100026.53;5061440;27;129916;-73
2022/08/08 08:34:52;;;;;;;6.82;1.48;;;22.10;1.00;;;24.47;41.45;100019.06;5061727;27;129975;-73
2022/08/08 08:37:21;;;;;;;3.00;0.75;;;22.10;1.00;;;24.64;40.71;100020.31;5064192;27;121343;-71
2022/08/08 08:39:53;;;;;;;7.10;1.70;;;22.20;1.00;;;24.69;40.31;100017.13;5061855;27;122083;-74
2022/08/08 08:42:23;;;;;;;3.70;1.38;;;22.30;1.00;;;24.81;42.36;100017.94;5064960;27;130470;-73
2022/08/08 08:44:54;;;;;;;6.43;1.10;;;22.40;1.00;;;24.73;39.70;100017.94;5064962;27;128766;-73
2022/08/08 08:47:24;;;;;;;3.25;1.25;;;22.30;1.00;;;24.73;39.21;100023.50;5048213;27;118759;-72
2022/08/08 08:49:55;;;;;;;3.08;1.08;;;21.90;1.00;;;24.10;39.59;100013.81;5048383;27;118083;-71
2022/08/08 08:52:24;;;;;;;3.80;1.23;;;21.20;1.00;;;24.36;42.04;100013.50;5061643;27;131301;-73
2022/08/08 08:54:57;;;;;;;2.60;0.93;;;21.70;1.00;;;24.52;41.07;100012.34;5064963;27;129085;-72
2022/08/08 08:57:26;;;;;;;4.22;1.10;;;21.90;1.00;;;24.73;41.29;100000.50;5064802;27;119103;-72
2022/08/08 08:59:57;;;;;;;2.78;1.25;;;22.20;1.00;;;24.09;41.45;100009.47;5065062;27;118456;-71
2022/08/08 09:02:26;;;;;;;3.03;1.10;;;21.70;1.00;;;23.73;41.81;100012.06;5063356;27;129970;-72
2022/08/08 09:05:06;;;;;;;2.70;0.90;;;21.40;1.00;;;23.80;41.31;100017.66;5061402;27;129747;-72
2022/08/08 09:07:37;;;;;;;2.15;1.00;;;21.30;1.00;;;24.00;40.46;100013.41;5064985;27;119225;-74
2022/08/08 09:10:06;;;;;;;2.65;0.95;;;21.20;1.00;;;23.97;40.75;100005.88;5047885;27;119020;-70
2022/08/08 09:12:45;;;;;;;4.38;0.90;;;21.30;1.00;;;23.54;40.11;100011.16;5047614;27;130147;-72
2022/08/08 09:15:15;;;;;;;3.00;0.90;;;21.10;1.00;;;23.74;39.81;100014.44;5061191;27;129233;-74
2022/08/08 09:17:46;;;;;;;6.45;0.90;;;21.60;1.00;;;24.30;38.33;100003.97;5062765;27;119995;-71
2022/08/08 09:20:20;;;;;;;2.47;1.10;;;21.90;1.00;;;24.65;38.55;100005.25;5065010;27;118588;-72
2022/08/08 09:22:50;;;;;;;1.90;0.75;;;22.30;1.00;;;25.19;37.66;99993.34;5060847;27;129753;-72
2022/08/08 09:25:21;;;;;;;2.80;0.98;;;22.70;1.00;;;25.55;37.01;99998.84;5062252;27;129093;-74
2022/08/08 09:27:51;;;;;;;3.88;1.10;;;22.40;1.00;;;25.40;37.10;99998.88;5060689;27;121868;-74
2022/08/08 09:30:20;;;;;;;4.90;1.48;;;22.40;1.00;;;25.58;36.65;100003.59;5063338;27;121924;-73
2022/08/08 09:32:53;;;;;;;3.20;0.90;;;22.30;1.00;;;25.06;38.11;99999.28;5060880;27;129878;-74
2022/08/08 09:35:28;;;;;;;4.03;0.95;;;22.00;1.00;;;24.45;37.71;100009.53;5060548;27;129577;-74
2022/08/08 09:38:03;;;;;;;3.63;1.00;;;22.10;1.00;;;23.80;39.87;99992.72;5060608;27;120089;-74
2022/08/08 09:40:41;;;;;;;3.30;1.13;;;21.70;1.00;;;22.98;40.44;99996.53;5064758;27;119220;-71
2022/08/08 09:43:19;;;;;;;2.25;0.80;;;21.30;1.00;;;22.71;41.47;100001.47;5061809;27;129828;-72
2022/08/08 09:46:00;;;;;;;1.17;0.75;;;21.20;1.00;;;21.92;42.64;99992.31;5064161;27;129015;-72
2022/08/08 09:48:32;;;;;;;2.50;0.90;;;20.80;1.00;;;21.99;41.52;100003.47;5059539;27;119605;-71
2022/08/08 09:51:03;;;;;;;1.90;0.90;;;20.90;1.00;;;22.00;41.39;99999.53;5061912;27;120063;-71
2022/08/08 09:53:41;;;;;;;2.15;0.90;;;20.80;1.00;;;22.13;40.61;99994.53;5045493;27;129859;-74
2022/08/08 09:56:12;;;;;;;3.10;1.10;;;21.00;1.00;;;22.48;40.02;99991.38;5068148;27;129429;-74
2022/08/08 09:58:48;;;;;;;2.30;1.00;;;21.20;1.00;;;23.45;39.35;99985.78;5082304;27;119830;-71
2022/08/08 10:01:21;;;;;;;2.33;0.95;;;22.00;1.00;;;24.22;36.17;99994.84;5082443;27;119383;-74
2022/08/08 10:03:51;;;;;;;10.88;2.55;;;22.50;1.00;;;24.81;35.47;100001.28;5082012;27;130009;-72
2022/08/08 10:06:21;;;;;;;2.72;1.00;;;22.80;1.00;;;25.34;35.46;99999.66;5066873;27;128256;-73
2022/08/08 10:08:52;;;;;;;1.65;0.80;;;23.20;1.00;;;25.12;35.35;99988.59;5082539;27;119519;-75
2022/08/08 10:11:23;;;;;;;1.83;0.85;;;22.70;1.00;;;24.94;37.38;99994.16;5082608;27;119349;-72
2022/08/08 10:13:57;;;;;;;1.63;0.90;;;23.00;1.00;;;24.34;36.49;100002.00;5081782;27;130108;-69
2022/08/08 10:16:38;;;;;;;2.65;0.90;;;22.40;1.00;;;23.52;38.24;99996.94;5081654;27;129733;-72
2022/08/08 10:19:11;;;;;;;3.28;1.08;;;21.90;1.00;;;23.29;39.19;99995.19;5080774;27;122206;-72
2022/08/08 10:21:41;;;;;;;4.60;1.67;;;21.80;1.00;;;23.21;39.26;99992.78;5081664;27;122016;-71
2022/08/08 10:24:11;;;;;;;2.83;1.00;;;21.60;1.00;;;23.92;38.59;99995.16;5081571;27;130544;-72
2022/08/08 10:26:48;;;;;;;3.15;0.90;;;22.00;1.00;;;24.46;36.76;100000.03;5081556;27;130501;-71
2022/08/08 10:29:21;;;;;;;1.92;0.90;;;22.50;1.00;;;24.35;36.66;99998.03;5049680;27;119207;-74
2022/08/08 10:34:51;;;;;;;2.10;0.90;;;22.90;1.00;;;26.08;36.98;99985.94;5080521;27;130962;-73
2022/08/08 10:37:27;;;;;;;3.70;1.02;;;24.00;1.00;;;26.70;33.35;99978.78;5081915;27;129856;-71
2022/08/08 10:39:56;;;;;;;;;;;24.10;1.00;;;26.44;34.43;99977.34;5080673;27;119305;-73
2022/08/08 10:42:33;;;;;;;2.97;0.82;;;23.90;1.00;;;25.48;35.17;99989.31;5082138;27;121084;-73
2022/08/08 10:45:05;;;;;;;2.15;0.70;;;23.40;1.00;;;24.67;35.12;99980.69;5064911;27;129744;-72
2022/08/08 10:47:34;;;;;;;1.55;0.65;;;22.70;1.00;;;24.39;36.91;99976.66;5081218;27;130068;-75
2022/08/08 10:50:05;;;;;;;2.40;0.80;;;22.50;1.00;;;24.19;37.43;99972.66;5081578;27;119691;-71
2022/08/08 10:52:37;;;;;;;3.40;1.00;;;22.30;1.00;;;24.16;36.13;99965.91;5080146;27;119594;-72
2022/08/08 10:55:12;;;;;;;3.38;0.90;;;22.10;1.00;;;23.72;37.82;99971.66;5080122;27;130345;-71
2022/08/08 10:57:43;;;;;;;2.58;0.77;;;21.80;1.00;;;23.54;38.89;99966.84;5065346;27;129470;-72
2022/08/08 11:00:14;;;;;;;4.15;1.00;;;21.80;1.00;;;23.28;39.27;99970.66;5081566;27;119826;-73
2022/08/08 11:02:43;;;;;;;5.53;1.25;;;21.60;1.00;;;23.54;38.63;99966.84;5081371;27;120008;-72